Terminal Aerodrome Forecast
Issued by NWS

Home | Current Version | Previous Version | Text Only | Print | Product List | Glossary On
Versions: 1 2 3 4 5 6 7 8 9 10 11 12 13 14 15 16
000
FTUS44 KLZK 101900 AAA
TAFLIT
TAF AMD
KLIT 101956Z 1020/1118 15006KT P6SM BKN040 OVC150
      TEMPO 1020/1023 3SM TSRA BR OVC025CB
     FM102300 07004KT P6SM BKN040 OVC100
      TEMPO 1023/1102 5SM TSRA BR OVC025CB
     FM110200 08003KT P6SM BKN150
     FM111500 15005KT P6SM BKN250=

USA.gov is the U.S. government's official web portal to all federal, state and local government web resources and services.